sensor_id;sensor_type;location;lat;lon;timestamp;P1;durP1;ratioP1;P2;durP2;ratioP2
59042;SDS011;44826;51.596;5.624;2024-02-21T00:01:44;12.80;;;5.40;;
59042;SDS011;44826;51.596;5.624;2024-02-21T00:04:10;13.27;;;6.13;;
59042;SDS011;44826;51.596;5.624;2024-02-21T00:06:35;12.00;;;5.70;;
59042;SDS011;44826;51.596;5.624;2024-02-21T00:09:00;14.40;;;5.85;;
59042;SDS011;44826;51.596;5.624;2024-02-21T00:11:26;13.57;;;5.63;;
59042;SDS011;44826;51.596;5.624;2024-02-21T00:13:51;17.42;;;5.85;;
59042;SDS011;44826;51.596;5.624;2024-02-21T00:16:16;17.80;;;6.07;;
59042;SDS011;44826;51.596;5.624;2024-02-21T00:18:42;16.25;;;5.90;;
59042;SDS011;44826;51.596;5.624;2024-02-21T00:21:08;12.20;;;6.18;;
59042;SDS011;44826;51.596;5.624;2024-02-21T00:23:33;14.52;;;6.22;;
59042;SDS011;44826;51.596;5.624;2024-02-21T00:25:58;11.65;;;5.82;;
59042;SDS011;44826;51.596;5.624;2024-02-21T00:28:24;14.40;;;5.88;;
59042;SDS011;44826;51.596;5.624;2024-02-21T00:30:49;14.25;;;5.47;;
59042;SDS011;44826;51.596;5.624;2024-02-21T00:33:16;11.80;;;5.82;;
59042;SDS011;44826;51.596;5.624;2024-02-21T00:35:42;18.20;;;5.70;;
59042;SDS011;44826;51.596;5.624;2024-02-21T00:38:07;14.43;;;6.05;;
59042;SDS011;44826;51.596;5.624;2024-02-21T00:40:33;14.20;;;5.10;;
59042;SDS011;44826;51.596;5.624;2024-02-21T00:42:59;13.75;;;5.70;;
59042;SDS011;44826;51.596;5.624;2024-02-21T00:45:24;15.23;;;5.88;;
59042;SDS011;44826;51.596;5.624;2024-02-21T00:47:49;12.10;;;5.93;;
59042;SDS011;44826;51.596;5.624;2024-02-21T00:50:15;17.17;;;6.00;;
59042;SDS011;44826;51.596;5.624;2024-02-21T00:52:40;15.15;;;5.38;;
59042;SDS011;44826;51.596;5.624;2024-02-21T00:55:05;12.75;;;5.60;;
59042;SDS011;44826;51.596;5.624;2024-02-21T00:57:31;12.43;;;6.13;;
59042;SDS011;44826;51.596;5.624;2024-02-21T00:59:57;11.63;;;5.60;;
59042;SDS011;44826;51.596;5.624;2024-02-21T01:02:22;10.65;;;5.18;;
59042;SDS011;44826;51.596;5.624;2024-02-21T01:04:47;11.57;;;5.13;;
59042;SDS011;44826;51.596;5.624;2024-02-21T01:07:13;10.90;;;5.32;;
59042;SDS011;44826;51.596;5.624;2024-02-21T01:09:38;12.90;;;5.03;;
59042;SDS011;44826;51.596;5.624;2024-02-21T01:12:03;11.80;;;5.38;;
59042;SDS011;44826;51.596;5.624;2024-02-21T01:14:29;13.40;;;5.25;;
59042;SDS011;44826;51.596;5.624;2024-02-21T01:16:54;11.65;;;4.90;;
59042;SDS011;44826;51.596;5.624;2024-02-21T01:19:20;11.35;;;4.90;;
59042;SDS011;44826;51.596;5.624;2024-02-21T01:21:45;15.75;;;5.32;;
59042;SDS011;44826;51.596;5.624;2024-02-21T01:24:10;10.32;;;4.90;;
59042;SDS011;44826;51.596;5.624;2024-02-21T01:26:35;12.65;;;5.32;;
59042;SDS011;44826;51.596;5.624;2024-02-21T01:29:01;12.52;;;5.30;;
59042;SDS011;44826;51.596;5.624;2024-02-21T01:31:26;10.30;;;5.10;;
59042;SDS011;44826;51.596;5.624;2024-02-21T01:33:51;13.50;;;4.88;;
59042;SDS011;44826;51.596;5.624;2024-02-21T01:36:17;11.60;;;4.95;;
59042;SDS011;44826;51.596;5.624;2024-02-21T01:38:42;8.73;;;4.40;;
59042;SDS011;44826;51.596;5.624;2024-02-21T01:41:07;11.48;;;4.55;;
59042;SDS011;44826;51.596;5.624;2024-02-21T01:43:33;12.50;;;4.38;;
59042;SDS011;44826;51.596;5.624;2024-02-21T01:45:58;12.25;;;4.78;;
59042;SDS011;44826;51.596;5.624;2024-02-21T01:48:24;10.82;;;4.85;;
59042;SDS011;44826;51.596;5.624;2024-02-21T01:50:50;9.77;;;4.53;;
59042;SDS011;44826;51.596;5.624;2024-02-21T01:53:16;10.85;;;4.63;;
59042;SDS011;44826;51.596;5.624;2024-02-21T01:55:46;11.93;;;4.93;;
59042;SDS011;44826;51.596;5.624;2024-02-21T01:58:14;12.50;;;4.63;;
59042;SDS011;44826;51.596;5.624;2024-02-21T02:00:41;10.27;;;4.57;;
59042;SDS011;44826;51.596;5.624;2024-02-21T02:03:11;10.35;;;4.35;;
59042;SDS011;44826;51.596;5.624;2024-02-21T02:05:48;11.20;;;4.60;;
59042;SDS011;44826;51.596;5.624;2024-02-21T02:08:15;13.45;;;4.43;;
59042;SDS011;44826;51.596;5.624;2024-02-21T02:10:41;10.48;;;4.50;;
59042;SDS011;44826;51.596;5.624;2024-02-21T02:13:07;10.18;;;4.30;;
59042;SDS011;44826;51.596;5.624;2024-02-21T02:18:07;8.68;;;3.85;;
59042;SDS011;44826;51.596;5.624;2024-02-21T02:20:33;12.27;;;4.53;;
59042;SDS011;44826;51.596;5.624;2024-02-21T02:22:59;12.20;;;4.50;;
59042;SDS011;44826;51.596;5.624;2024-02-21T02:25:26;8.48;;;4.30;;
59042;SDS011;44826;51.596;5.624;2024-02-21T02:27:51;8.95;;;3.97;;
59042;SDS011;44826;51.596;5.624;2024-02-21T02:30:18;9.77;;;3.78;;
59042;SDS011;44826;51.596;5.624;2024-02-21T02:32:46;8.85;;;3.90;;
59042;SDS011;44826;51.596;5.624;2024-02-21T02:35:11;9.48;;;3.85;;
59042;SDS011;44826;51.596;5.624;2024-02-21T02:37:37;10.13;;;4.15;;
59042;SDS011;44826;51.596;5.624;2024-02-21T02:40:04;10.07;;;4.10;;
59042;SDS011;44826;51.596;5.624;2024-02-21T02:42:33;10.52;;;3.90;;
59042;SDS011;44826;51.596;5.624;2024-02-21T02:44:58;8.60;;;3.60;;
59042;SDS011;44826;51.596;5.624;2024-02-21T02:47:23;7.60;;;3.65;;
59042;SDS011;44826;51.596;5.624;2024-02-21T02:49:49;8.77;;;3.80;;
59042;SDS011;44826;51.596;5.624;2024-02-21T02:52:16;6.43;;;3.30;;
59042;SDS011;44826;51.596;5.624;2024-02-21T02:54:42;10.38;;;4.10;;
59042;SDS011;44826;51.596;5.624;2024-02-21T02:57:07;7.75;;;3.55;;
59042;SDS011;44826;51.596;5.624;2024-02-21T02:59:33;8.40;;;3.65;;
59042;SDS011;44826;51.596;5.624;2024-02-21T03:01:58;7.85;;;3.65;;
59042;SDS011;44826;51.596;5.624;2024-02-21T03:04:23;7.13;;;3.50;;
59042;SDS011;44826;51.596;5.624;2024-02-21T03:06:49;9.90;;;3.53;;
59042;SDS011;44826;51.596;5.624;2024-02-21T03:09:14;10.60;;;3.83;;
59042;SDS011;44826;51.596;5.624;2024-02-21T03:11:40;8.32;;;3.70;;
59042;SDS011;44826;51.596;5.624;2024-02-21T03:14:08;9.43;;;3.28;;
59042;SDS011;44826;51.596;5.624;2024-02-21T03:16:33;9.35;;;3.65;;
59042;SDS011;44826;51.596;5.624;2024-02-21T03:18:59;9.65;;;3.88;;
59042;SDS011;44826;51.596;5.624;2024-02-21T03:21:24;6.75;;;3.00;;
59042;SDS011;44826;51.596;5.624;2024-02-21T03:23:49;8.65;;;3.63;;
59042;SDS011;44826;51.596;5.624;2024-02-21T03:26:14;8.57;;;3.40;;
59042;SDS011;44826;51.596;5.624;2024-02-21T03:28:42;6.95;;;3.53;;
59042;SDS011;44826;51.596;5.624;2024-02-21T03:31:10;8.57;;;3.92;;
59042;SDS011;44826;51.596;5.624;2024-02-21T03:33:37;6.28;;;3.10;;
59042;SDS011;44826;51.596;5.624;2024-02-21T03:36:02;8.77;;;3.47;;
59042;SDS011;44826;51.596;5.624;2024-02-21T03:38:28;6.20;;;3.35;;
59042;SDS011;44826;51.596;5.624;2024-02-21T03:40:54;8.05;;;3.08;;
59042;SDS011;44826;51.596;5.624;2024-02-21T03:43:19;7.55;;;3.00;;
59042;SDS011;44826;51.596;5.624;2024-02-21T03:45:44;8.68;;;3.35;;
59042;SDS011;44826;51.596;5.624;2024-02-21T03:48:10;7.82;;;3.00;;
59042;SDS011;44826;51.596;5.624;2024-02-21T03:50:35;7.82;;;3.40;;
59042;SDS011;44826;51.596;5.624;2024-02-21T03:53:00;7.20;;;3.25;;
59042;SDS011;44826;51.596;5.624;2024-02-21T03:55:26;9.43;;;3.42;;
59042;SDS011;44826;51.596;5.624;2024-02-21T03:57:51;7.85;;;2.97;;
59042;SDS011;44826;51.596;5.624;2024-02-21T04:00:16;6.38;;;2.95;;
59042;SDS011;44826;51.596;5.624;2024-02-21T04:02:42;7.82;;;3.25;;
59042;SDS011;44826;51.596;5.624;2024-02-21T04:05:08;8.10;;;3.50;;
59042;SDS011;44826;51.596;5.624;2024-02-21T04:07:36;7.43;;;3.67;;
59042;SDS011;44826;51.596;5.624;2024-02-21T04:10:02;8.27;;;3.50;;
59042;SDS011;44826;51.596;5.624;2024-02-21T04:12:28;7.80;;;3.47;;
59042;SDS011;44826;51.596;5.624;2024-02-21T04:14:53;6.97;;;3.03;;
59042;SDS011;44826;51.596;5.624;2024-02-21T04:17:18;9.75;;;3.72;;
59042;SDS011;44826;51.596;5.624;2024-02-21T04:19:44;7.28;;;3.50;;
59042;SDS011;44826;51.596;5.624;2024-02-21T04:22:09;7.82;;;3.60;;
59042;SDS011;44826;51.596;5.624;2024-02-21T04:24:34;7.03;;;3.50;;
59042;SDS011;44826;51.596;5.624;2024-02-21T04:26:59;10.38;;;3.40;;
59042;SDS011;44826;51.596;5.624;2024-02-21T04:29:25;8.98;;;3.67;;
59042;SDS011;44826;51.596;5.624;2024-02-21T04:31:50;9.88;;;3.70;;
59042;SDS011;44826;51.596;5.624;2024-02-21T04:34:15;8.38;;;3.80;;
59042;SDS011;44826;51.596;5.624;2024-02-21T04:36:41;6.97;;;3.15;;
59042;SDS011;44826;51.596;5.624;2024-02-21T04:39:06;8.10;;;3.50;;
59042;SDS011;44826;51.596;5.624;2024-02-21T04:41:31;7.88;;;3.63;;
59042;SDS011;44826;51.596;5.624;2024-02-21T04:43:57;8.65;;;3.72;;
59042;SDS011;44826;51.596;5.624;2024-02-21T04:46:22;8.30;;;3.50;;
59042;SDS011;44826;51.596;5.624;2024-02-21T04:48:47;6.13;;;3.50;;
59042;SDS011;44826;51.596;5.624;2024-02-21T04:51:13;6.78;;;3.40;;
59042;SDS011;44826;51.596;5.624;2024-02-21T04:53:38;8.07;;;3.33;;
59042;SDS011;44826;51.596;5.624;2024-02-21T04:56:04;9.70;;;3.67;;
59042;SDS011;44826;51.596;5.624;2024-02-21T04:58:29;9.80;;;3.97;;
59042;SDS011;44826;51.596;5.624;2024-02-21T05:00:55;9.50;;;3.60;;
59042;SDS011;44826;51.596;5.624;2024-02-21T05:03:20;9.27;;;4.05;;
59042;SDS011;44826;51.596;5.624;2024-02-21T05:05:46;10.13;;;4.10;;
59042;SDS011;44826;51.596;5.624;2024-02-21T05:08:11;8.85;;;3.97;;
59042;SDS011;44826;51.596;5.624;2024-02-21T05:10:37;10.38;;;3.92;;
59042;SDS011;44826;51.596;5.624;2024-02-21T05:13:03;12.55;;;4.63;;
59042;SDS011;44826;51.596;5.624;2024-02-21T05:15:28;10.18;;;4.53;;
59042;SDS011;44826;51.596;5.624;2024-02-21T05:17:53;11.13;;;4.60;;
59042;SDS011;44826;51.596;5.624;2024-02-21T05:20:19;9.38;;;4.75;;
59042;SDS011;44826;51.596;5.624;2024-02-21T05:22:44;8.73;;;4.22;;
59042;SDS011;44826;51.596;5.624;2024-02-21T05:25:09;13.52;;;4.65;;
59042;SDS011;44826;51.596;5.624;2024-02-21T05:27:35;10.73;;;4.82;;
59042;SDS011;44826;51.596;5.624;2024-02-21T05:30:01;12.77;;;4.90;;
59042;SDS011;44826;51.596;5.624;2024-02-21T05:32:27;9.30;;;4.55;;
59042;SDS011;44826;51.596;5.624;2024-02-21T05:34:53;15.10;;;4.78;;
59042;SDS011;44826;51.596;5.624;2024-02-21T05:37:18;11.40;;;4.70;;
59042;SDS011;44826;51.596;5.624;2024-02-21T05:39:43;11.77;;;4.55;;
59042;SDS011;44826;51.596;5.624;2024-02-21T05:42:09;12.60;;;5.40;;
59042;SDS011;44826;51.596;5.624;2024-02-21T05:44:34;10.93;;;4.55;;
59042;SDS011;44826;51.596;5.624;2024-02-21T05:46:59;10.75;;;4.90;;
59042;SDS011;44826;51.596;5.624;2024-02-21T05:49:24;12.93;;;4.65;;
59042;SDS011;44826;51.596;5.624;2024-02-21T05:51:50;10.43;;;4.78;;
59042;SDS011;44826;51.596;5.624;2024-02-21T05:54:15;14.40;;;4.72;;
59042;SDS011;44826;51.596;5.624;2024-02-21T05:56:43;9.80;;;4.90;;
59042;SDS011;44826;51.596;5.624;2024-02-21T05:59:10;9.02;;;4.22;;
59042;SDS011;44826;51.596;5.624;2024-02-21T06:01:36;10.82;;;4.32;;
59042;SDS011;44826;51.596;5.624;2024-02-21T06:04:01;9.95;;;4.53;;
59042;SDS011;44826;51.596;5.624;2024-02-21T06:06:26;8.48;;;4.45;;
59042;SDS011;44826;51.596;5.624;2024-02-21T06:08:52;9.55;;;4.70;;
59042;SDS011;44826;51.596;5.624;2024-02-21T06:11:17;12.63;;;5.20;;
59042;SDS011;44826;51.596;5.624;2024-02-21T06:13:42;11.65;;;5.30;;
59042;SDS011;44826;51.596;5.624;2024-02-21T06:16:08;11.43;;;4.78;;
59042;SDS011;44826;51.596;5.624;2024-02-21T06:18:34;13.10;;;5.18;;
59042;SDS011;44826;51.596;5.624;2024-02-21T06:21:01;9.85;;;4.03;;
59042;SDS011;44826;51.596;5.624;2024-02-21T06:23:26;12.68;;;5.22;;
59042;SDS011;44826;51.596;5.624;2024-02-21T06:25:52;10.52;;;4.65;;
59042;SDS011;44826;51.596;5.624;2024-02-21T06:28:18;9.07;;;4.53;;
59042;SDS011;44826;51.596;5.624;2024-02-21T06:30:43;9.80;;;5.50;;
59042;SDS011;44826;51.596;5.624;2024-02-21T06:33:08;11.88;;;4.90;;
59042;SDS011;44826;51.596;5.624;2024-02-21T06:35:34;12.75;;;4.80;;
59042;SDS011;44826;51.596;5.624;2024-02-21T06:37:59;10.52;;;4.60;;
59042;SDS011;44826;51.596;5.624;2024-02-21T06:40:24;11.23;;;4.78;;
59042;SDS011;44826;51.596;5.624;2024-02-21T06:42:50;11.15;;;4.45;;
59042;SDS011;44826;51.596;5.624;2024-02-21T06:45:16;10.38;;;4.70;;
59042;SDS011;44826;51.596;5.624;2024-02-21T06:47:41;10.63;;;5.00;;
59042;SDS011;44826;51.596;5.624;2024-02-21T06:50:07;8.93;;;4.70;;
59042;SDS011;44826;51.596;5.624;2024-02-21T06:52:34;12.57;;;5.30;;
59042;SDS011;44826;51.596;5.624;2024-02-21T06:54:59;11.50;;;6.05;;
59042;SDS011;44826;51.596;5.624;2024-02-21T06:57:25;11.23;;;5.95;;
59042;SDS011;44826;51.596;5.624;2024-02-21T06:59:50;12.15;;;5.38;;
59042;SDS011;44826;51.596;5.624;2024-02-21T07:02:15;11.23;;;5.13;;
59042;SDS011;44826;51.596;5.624;2024-02-21T07:04:41;11.63;;;5.43;;
59042;SDS011;44826;51.596;5.624;2024-02-21T07:07:06;13.32;;;5.35;;
59042;SDS011;44826;51.596;5.624;2024-02-21T07:09:31;13.68;;;5.25;;
59042;SDS011;44826;51.596;5.624;2024-02-21T07:11:57;10.43;;;4.93;;
59042;SDS011;44826;51.596;5.624;2024-02-21T07:14:23;10.30;;;5.18;;
59042;SDS011;44826;51.596;5.624;2024-02-21T07:16:48;12.27;;;5.45;;
59042;SDS011;44826;51.596;5.624;2024-02-21T07:19:14;12.82;;;5.03;;
59042;SDS011;44826;51.596;5.624;2024-02-21T07:21:39;9.82;;;5.35;;
59042;SDS011;44826;51.596;5.624;2024-02-21T07:24:06;11.32;;;5.55;;
59042;SDS011;44826;51.596;5.624;2024-02-21T07:26:32;11.05;;;5.47;;
59042;SDS011;44826;51.596;5.624;2024-02-21T07:28:58;11.40;;;5.30;;
59042;SDS011;44826;51.596;5.624;2024-02-21T07:31:23;12.13;;;5.40;;
59042;SDS011;44826;51.596;5.624;2024-02-21T07:33:48;11.20;;;5.38;;
59042;SDS011;44826;51.596;5.624;2024-02-21T07:36:14;9.23;;;4.90;;
59042;SDS011;44826;51.596;5.624;2024-02-21T07:38:40;10.90;;;4.78;;
59042;SDS011;44826;51.596;5.624;2024-02-21T07:41:05;11.00;;;5.28;;
59042;SDS011;44826;51.596;5.624;2024-02-21T07:43:31;12.68;;;6.13;;
59042;SDS011;44826;51.596;5.624;2024-02-21T07:45:56;16.98;;;5.65;;
59042;SDS011;44826;51.596;5.624;2024-02-21T07:48:21;12.90;;;5.68;;
59042;SDS011;44826;51.596;5.624;2024-02-21T07:50:50;14.35;;;5.28;;
59042;SDS011;44826;51.596;5.624;2024-02-21T07:53:16;10.88;;;5.60;;
59042;SDS011;44826;51.596;5.624;2024-02-21T07:55:41;12.65;;;5.55;;
59042;SDS011;44826;51.596;5.624;2024-02-21T07:58:06;12.93;;;5.70;;
59042;SDS011;44826;51.596;5.624;2024-02-21T08:00:32;10.40;;;5.43;;
59042;SDS011;44826;51.596;5.624;2024-02-21T08:02:58;10.80;;;5.43;;
59042;SDS011;44826;51.596;5.624;2024-02-21T08:05:23;13.75;;;5.05;;
59042;SDS011;44826;51.596;5.624;2024-02-21T08:07:49;10.73;;;4.75;;
59042;SDS011;44826;51.596;5.624;2024-02-21T08:10:14;10.25;;;5.22;;
59042;SDS011;44826;51.596;5.624;2024-02-21T08:12:40;11.70;;;5.07;;
59042;SDS011;44826;51.596;5.624;2024-02-21T08:15:05;8.55;;;4.75;;
59042;SDS011;44826;51.596;5.624;2024-02-21T08:17:33;8.30;;;4.68;;
59042;SDS011;44826;51.596;5.624;2024-02-21T08:19:58;10.52;;;5.40;;
59042;SDS011;44826;51.596;5.624;2024-02-21T08:22:24;9.98;;;4.88;;
59042;SDS011;44826;51.596;5.624;2024-02-21T08:24:49;10.20;;;4.75;;
59042;SDS011;44826;51.596;5.624;2024-02-21T08:27:14;8.80;;;4.50;;
59042;SDS011;44826;51.596;5.624;2024-02-21T08:29:40;12.15;;;4.88;;
59042;SDS011;44826;51.596;5.624;2024-02-21T08:32:05;9.70;;;4.80;;
59042;SDS011;44826;51.596;5.624;2024-02-21T08:34:31;10.48;;;4.72;;
59042;SDS011;44826;51.596;5.624;2024-02-21T08:36:58;11.48;;;4.70;;
59042;SDS011;44826;51.596;5.624;2024-02-21T08:39:24;8.43;;;4.22;;
59042;SDS011;44826;51.596;5.624;2024-02-21T08:41:49;7.72;;;4.40;;
59042;SDS011;44826;51.596;5.624;2024-02-21T08:44:16;7.65;;;4.30;;
59042;SDS011;44826;51.596;5.624;2024-02-21T08:46:41;7.82;;;3.85;;
59042;SDS011;44826;51.596;5.624;2024-02-21T08:49:06;8.38;;;4.28;;
59042;SDS011;44826;51.596;5.624;2024-02-21T08:51:32;7.63;;;3.83;;
59042;SDS011;44826;51.596;5.624;2024-02-21T08:53:57;7.88;;;4.20;;
59042;SDS011;44826;51.596;5.624;2024-02-21T08:56:23;8.63;;;4.28;;
59042;SDS011;44826;51.596;5.624;2024-02-21T08:58:49;9.88;;;4.55;;
59042;SDS011;44826;51.596;5.624;2024-02-21T09:01:15;7.90;;;4.10;;
59042;SDS011;44826;51.596;5.624;2024-02-21T09:03:40;7.93;;;3.67;;
59042;SDS011;44826;51.596;5.624;2024-02-21T09:06:05;8.07;;;3.63;;
59042;SDS011;44826;51.596;5.624;2024-02-21T09:08:31;8.40;;;3.97;;
59042;SDS011;44826;51.596;5.624;2024-02-21T09:10:57;7.65;;;4.20;;
59042;SDS011;44826;51.596;5.624;2024-02-21T09:13:22;8.48;;;3.78;;
59042;SDS011;44826;51.596;5.624;2024-02-21T09:15:48;7.32;;;3.67;;
59042;SDS011;44826;51.596;5.624;2024-02-21T09:18:15;7.47;;;3.95;;
59042;SDS011;44826;51.596;5.624;2024-02-21T09:20:41;7.05;;;3.78;;
59042;SDS011;44826;51.596;5.624;2024-02-21T09:23:06;8.43;;;3.65;;
59042;SDS011;44826;51.596;5.624;2024-02-21T09:25:32;8.00;;;3.90;;
59042;SDS011;44826;51.596;5.624;2024-02-21T09:27:57;7.43;;;3.70;;
59042;SDS011;44826;51.596;5.624;2024-02-21T09:30:25;5.80;;;3.42;;
59042;SDS011;44826;51.596;5.624;2024-02-21T09:32:51;5.07;;;3.22;;
59042;SDS011;44826;51.596;5.624;2024-02-21T09:35:16;7.50;;;3.50;;
59042;SDS011;44826;51.596;5.624;2024-02-21T09:37:41;6.78;;;3.78;;
59042;SDS011;44826;51.596;5.624;2024-02-21T09:40:07;8.10;;;3.70;;
59042;SDS011;44826;51.596;5.624;2024-02-21T09:42:39;6.20;;;4.03;;
59042;SDS011;44826;51.596;5.624;2024-02-21T09:45:14;7.05;;;3.90;;
59042;SDS011;44826;51.596;5.624;2024-02-21T09:50:28;6.47;;;3.70;;
59042;SDS011;44826;51.596;5.624;2024-02-21T09:52:57;9.30;;;4.20;;
59042;SDS011;44826;51.596;5.624;2024-02-21T09:55:26;7.15;;;4.22;;
59042;SDS011;44826;51.596;5.624;2024-02-21T09:57:54;7.40;;;4.43;;
59042;SDS011;44826;51.596;5.624;2024-02-21T10:00:22;8.40;;;4.25;;
59042;SDS011;44826;51.596;5.624;2024-02-21T10:02:48;8.20;;;4.05;;
59042;SDS011;44826;51.596;5.624;2024-02-21T10:05:15;7.85;;;4.32;;
59042;SDS011;44826;51.596;5.624;2024-02-21T10:07:40;8.77;;;4.28;;
59042;SDS011;44826;51.596;5.624;2024-02-21T10:10:06;6.78;;;4.47;;
59042;SDS011;44826;51.596;5.624;2024-02-21T10:12:32;8.20;;;4.40;;
59042;SDS011;44826;51.596;5.624;2024-02-21T10:15:03;9.70;;;4.25;;
59042;SDS011;44826;51.596;5.624;2024-02-21T10:17:30;10.60;;;4.50;;
59042;SDS011;44826;51.596;5.624;2024-02-21T10:20:06;7.68;;;4.00;;
59042;SDS011;44826;51.596;5.624;2024-02-21T10:22:35;7.95;;;3.88;;
59042;SDS011;44826;51.596;5.624;2024-02-21T10:25:10;8.40;;;4.15;;
59042;SDS011;44826;51.596;5.624;2024-02-21T10:27:37;7.68;;;4.13;;
59042;SDS011;44826;51.596;5.624;2024-02-21T10:30:04;7.53;;;3.90;;
59042;SDS011;44826;51.596;5.624;2024-02-21T10:32:32;8.70;;;4.03;;
59042;SDS011;44826;51.596;5.624;2024-02-21T10:35:01;10.95;;;4.63;;
59042;SDS011;44826;51.596;5.624;2024-02-21T10:37:29;6.07;;;3.40;;
59042;SDS011;44826;51.596;5.624;2024-02-21T10:39:55;8.68;;;4.00;;
59042;SDS011;44826;51.596;5.624;2024-02-21T10:42:21;8.13;;;3.75;;
59042;SDS011;44826;51.596;5.624;2024-02-21T10:44:48;7.68;;;3.85;;
59042;SDS011;44826;51.596;5.624;2024-02-21T10:47:16;6.40;;;3.42;;
59042;SDS011;44826;51.596;5.624;2024-02-21T10:49:46;7.43;;;4.03;;
59042;SDS011;44826;51.596;5.624;2024-02-21T10:55:30;6.68;;;3.80;;
59042;SDS011;44826;51.596;5.624;2024-02-21T10:58:00;6.00;;;3.47;;
59042;SDS011;44826;51.596;5.624;2024-02-21T11:00:26;7.05;;;3.55;;
59042;SDS011;44826;51.596;5.624;2024-02-21T11:02:55;7.85;;;3.53;;
59042;SDS011;44826;51.596;5.624;2024-02-21T11:05:22;7.93;;;3.60;;
59042;SDS011;44826;51.596;5.624;2024-02-21T11:07:49;5.13;;;3.20;;
59042;SDS011;44826;51.596;5.624;2024-02-21T11:10:25;5.72;;;3.30;;
59042;SDS011;44826;51.596;5.624;2024-02-21T11:13:07;8.23;;;3.40;;
59042;SDS011;44826;51.596;5.624;2024-02-21T11:17:58;6.28;;;3.17;;
59042;SDS011;44826;51.596;5.624;2024-02-21T11:20:36;6.72;;;3.20;;
59042;SDS011;44826;51.596;5.624;2024-02-21T11:23:02;7.88;;;3.55;;
59042;SDS011;44826;51.596;5.624;2024-02-21T11:25:28;7.63;;;3.42;;
59042;SDS011;44826;51.596;5.624;2024-02-21T11:27:59;7.43;;;3.50;;
59042;SDS011;44826;51.596;5.624;2024-02-21T11:30:31;6.18;;;3.30;;
59042;SDS011;44826;51.596;5.624;2024-02-21T11:33:02;8.32;;;3.85;;
59042;SDS011;44826;51.596;5.624;2024-02-21T11:35:32;6.22;;;3.50;;
59042;SDS011;44826;51.596;5.624;2024-02-21T11:38:07;8.90;;;3.47;;
59042;SDS011;44826;51.596;5.624;2024-02-21T11:40:38;7.15;;;3.33;;
59042;SDS011;44826;51.596;5.624;2024-02-21T11:43:05;5.35;;;2.92;;
59042;SDS011;44826;51.596;5.624;2024-02-21T11:45:30;8.65;;;3.25;;
59042;SDS011;44826;51.596;5.624;2024-02-21T11:47:57;5.35;;;3.00;;
59042;SDS011;44826;51.596;5.624;2024-02-21T11:50:25;7.53;;;3.45;;
59042;SDS011;44826;51.596;5.624;2024-02-21T11:52:50;7.03;;;2.90;;
59042;SDS011;44826;51.596;5.624;2024-02-21T11:55:16;5.00;;;2.95;;
59042;SDS011;44826;51.596;5.624;2024-02-21T11:57:41;5.28;;;2.80;;
59042;SDS011;44826;51.596;5.624;2024-02-21T12:00:13;9.30;;;3.20;;
59042;SDS011;44826;51.596;5.624;2024-02-21T12:02:43;6.35;;;2.80;;
59042;SDS011;44826;51.596;5.624;2024-02-21T12:05:09;7.80;;;3.08;;
59042;SDS011;44826;51.596;5.624;2024-02-21T12:07:36;12.90;;;2.95;;
59042;SDS011;44826;51.596;5.624;2024-02-21T12:10:06;9.60;;;3.00;;
59042;SDS011;44826;51.596;5.624;2024-02-21T12:12:34;6.72;;;2.90;;
59042;SDS011;44826;51.596;5.624;2024-02-21T12:15:01;5.97;;;2.88;;
59042;SDS011;44826;51.596;5.624;2024-02-21T12:17:29;6.78;;;3.03;;
59042;SDS011;44826;51.596;5.624;2024-02-21T12:19:54;6.65;;;2.85;;
59042;SDS011;44826;51.596;5.624;2024-02-21T12:22:20;7.15;;;2.90;;
59042;SDS011;44826;51.596;5.624;2024-02-21T12:24:45;8.68;;;3.30;;
59042;SDS011;44826;51.596;5.624;2024-02-21T12:27:12;7.00;;;2.97;;
59042;SDS011;44826;51.596;5.624;2024-02-21T12:29:38;8.15;;;2.65;;
59042;SDS011;44826;51.596;5.624;2024-02-21T12:32:03;6.18;;;2.72;;
59042;SDS011;44826;51.596;5.624;2024-02-21T12:34:29;5.80;;;2.67;;
59042;SDS011;44826;51.596;5.624;2024-02-21T12:36:57;4.40;;;2.47;;
59042;SDS011;44826;51.596;5.624;2024-02-21T12:39:23;7.30;;;2.40;;
59042;SDS011;44826;51.596;5.624;2024-02-21T12:41:48;6.38;;;2.80;;
59042;SDS011;44826;51.596;5.624;2024-02-21T12:44:14;6.97;;;3.08;;
59042;SDS011;44826;51.596;5.624;2024-02-21T12:46:41;5.53;;;2.70;;
59042;SDS011;44826;51.596;5.624;2024-02-21T12:49:06;6.15;;;2.60;;
59042;SDS011;44826;51.596;5.624;2024-02-21T12:51:35;7.00;;;3.00;;
59042;SDS011;44826;51.596;5.624;2024-02-21T12:54:00;7.38;;;2.75;;
59042;SDS011;44826;51.596;5.624;2024-02-21T12:56:27;8.00;;;2.70;;
59042;SDS011;44826;51.596;5.624;2024-02-21T12:58:53;3.95;;;2.17;;
59042;SDS011;44826;51.596;5.624;2024-02-21T13:01:19;6.20;;;2.75;;
59042;SDS011;44826;51.596;5.624;2024-02-21T13:03:44;6.40;;;2.90;;
59042;SDS011;44826;51.596;5.624;2024-02-21T13:06:11;9.48;;;2.80;;
59042;SDS011;44826;51.596;5.624;2024-02-21T13:08:37;6.88;;;2.40;;
59042;SDS011;44826;51.596;5.624;2024-02-21T13:11:02;7.90;;;3.10;;
59042;SDS011;44826;51.596;5.624;2024-02-21T13:13:28;7.68;;;2.83;;
59042;SDS011;44826;51.596;5.624;2024-02-21T13:15:53;5.90;;;2.55;;
59042;SDS011;44826;51.596;5.624;2024-02-21T13:18:18;7.22;;;2.70;;
59042;SDS011;44826;51.596;5.624;2024-02-21T13:20:44;6.00;;;2.70;;
59042;SDS011;44826;51.596;5.624;2024-02-21T13:23:09;5.28;;;2.55;;
59042;SDS011;44826;51.596;5.624;2024-02-21T13:25:34;4.50;;;2.35;;
59042;SDS011;44826;51.596;5.624;2024-02-21T13:28:00;6.00;;;2.67;;
59042;SDS011;44826;51.596;5.624;2024-02-21T13:30:25;7.03;;;2.63;;
59042;SDS011;44826;51.596;5.624;2024-02-21T13:32:50;6.72;;;2.63;;
59042;SDS011;44826;51.596;5.624;2024-02-21T13:35:16;5.22;;;2.38;;
59042;SDS011;44826;51.596;5.624;2024-02-21T13:37:41;4.78;;;2.17;;
59042;SDS011;44826;51.596;5.624;2024-02-21T13:40:07;7.60;;;2.40;;
59042;SDS011;44826;51.596;5.624;2024-02-21T13:42:39;7.07;;;2.55;;
59042;SDS011;44826;51.596;5.624;2024-02-21T13:45:05;5.63;;;2.38;;
59042;SDS011;44826;51.596;5.624;2024-02-21T13:47:32;9.02;;;2.80;;
59042;SDS011;44826;51.596;5.624;2024-02-21T13:49:58;5.97;;;2.40;;
59042;SDS011;44826;51.596;5.624;2024-02-21T13:52:23;3.90;;;2.38;;
59042;SDS011;44826;51.596;5.624;2024-02-21T13:54:51;7.05;;;2.53;;
59042;SDS011;44826;51.596;5.624;2024-02-21T13:57:17;4.40;;;2.20;;
59042;SDS011;44826;51.596;5.624;2024-02-21T13:59:42;6.82;;;2.50;;
59042;SDS011;44826;51.596;5.624;2024-02-21T14:02:07;4.13;;;2.00;;
59042;SDS011;44826;51.596;5.624;2024-02-21T14:04:33;7.05;;;2.30;;
59042;SDS011;44826;51.596;5.624;2024-02-21T14:06:59;4.63;;;2.00;;
59042;SDS011;44826;51.596;5.624;2024-02-21T14:09:25;5.10;;;2.17;;
59042;SDS011;44826;51.596;5.624;2024-02-21T14:11:51;4.78;;;2.30;;
59042;SDS011;44826;51.596;5.624;2024-02-21T14:14:16;4.75;;;2.20;;
59042;SDS011;44826;51.596;5.624;2024-02-21T14:16:41;6.03;;;2.30;;
59042;SDS011;44826;51.596;5.624;2024-02-21T14:19:07;6.65;;;2.25;;
59042;SDS011;44826;51.596;5.624;2024-02-21T14:21:33;6.20;;;2.10;;
59042;SDS011;44826;51.596;5.624;2024-02-21T14:24:02;6.93;;;2.05;;
59042;SDS011;44826;51.596;5.624;2024-02-21T14:26:28;5.57;;;2.53;;
59042;SDS011;44826;51.596;5.624;2024-02-21T14:28:56;3.88;;;2.20;;
59042;SDS011;44826;51.596;5.624;2024-02-21T14:31:21;5.05;;;2.25;;
59042;SDS011;44826;51.596;5.624;2024-02-21T14:33:47;5.80;;;2.22;;
59042;SDS011;44826;51.596;5.624;2024-02-21T14:36:12;3.38;;;1.80;;
59042;SDS011;44826;51.596;5.624;2024-02-21T14:38:38;4.35;;;2.28;;
59042;SDS011;44826;51.596;5.624;2024-02-21T14:41:03;4.15;;;2.28;;
59042;SDS011;44826;51.596;5.624;2024-02-21T14:43:28;3.72;;;2.00;;
59042;SDS011;44826;51.596;5.624;2024-02-21T14:45:54;4.97;;;2.20;;
59042;SDS011;44826;51.596;5.624;2024-02-21T14:48:20;4.47;;;2.20;;